sensor_id;sensor_type;location;lat;lon;timestamp;P1;durP1;ratioP1;P2;durP2;ratioP2
11541;SDS011;5827;49.482;7.716;2023-04-10T00:01:30;13.37;;;9.00;;
11541;SDS011;5827;49.482;7.716;2023-04-10T00:03:35;11.07;;;8.20;;
11541;SDS011;5827;49.482;7.716;2023-04-10T00:05:37;10.23;;;8.30;;
11541;SDS011;5827;49.482;7.716;2023-04-10T00:07:38;10.20;;;8.30;;
11541;SDS011;5827;49.482;7.716;2023-04-10T00:09:40;10.37;;;8.37;;
11541;SDS011;5827;49.482;7.716;2023-04-10T00:11:41;11.80;;;8.13;;
11541;SDS011;5827;49.482;7.716;2023-04-10T00:13:43;10.33;;;8.37;;
11541;SDS011;5827;49.482;7.716;2023-04-10T00:15:44;10.57;;;8.30;;
11541;SDS011;5827;49.482;7.716;2023-04-10T00:17:46;9.03;;;7.93;;
11541;SDS011;5827;49.482;7.716;2023-04-10T00:19:50;9.73;;;8.20;;
11541;SDS011;5827;49.482;7.716;2023-04-10T00:21:52;8.83;;;7.50;;
11541;SDS011;5827;49.482;7.716;2023-04-10T00:23:53;8.17;;;7.07;;
11541;SDS011;5827;49.482;7.716;2023-04-10T00:25:55;9.73;;;8.03;;
11541;SDS011;5827;49.482;7.716;2023-04-10T00:27:56;9.20;;;7.87;;
11541;SDS011;5827;49.482;7.716;2023-04-10T00:29:58;9.73;;;8.57;;
11541;SDS011;5827;49.482;7.716;2023-04-10T00:32:00;8.50;;;7.63;;
11541;SDS011;5827;49.482;7.716;2023-04-10T00:34:01;10.17;;;8.50;;
11541;SDS011;5827;49.482;7.716;2023-04-10T00:36:05;10.87;;;8.17;;
11541;SDS011;5827;49.482;7.716;2023-04-10T00:38:06;8.60;;;7.67;;
11541;SDS011;5827;49.482;7.716;2023-04-10T00:40:08;9.03;;;7.83;;
11541;SDS011;5827;49.482;7.716;2023-04-10T00:42:10;9.83;;;8.37;;
11541;SDS011;5827;49.482;7.716;2023-04-10T00:44:11;8.90;;;7.80;;
11541;SDS011;5827;49.482;7.716;2023-04-10T00:46:13;9.27;;;8.20;;
11541;SDS011;5827;49.482;7.716;2023-04-10T00:48:14;8.80;;;7.53;;
11541;SDS011;5827;49.482;7.716;2023-04-10T00:50:16;9.97;;;8.23;;
11541;SDS011;5827;49.482;7.716;2023-04-10T00:52:19;10.13;;;8.57;;
11541;SDS011;5827;49.482;7.716;2023-04-10T00:54:21;10.33;;;8.43;;
11541;SDS011;5827;49.482;7.716;2023-04-10T00:56:23;9.30;;;7.80;;
11541;SDS011;5827;49.482;7.716;2023-04-10T00:58:25;8.70;;;7.67;;
11541;SDS011;5827;49.482;7.716;2023-04-10T01:00:26;9.97;;;8.27;;
11541;SDS011;5827;49.482;7.716;2023-04-10T01:02:28;8.90;;;7.20;;
11541;SDS011;5827;49.482;7.716;2023-04-10T01:04:29;8.40;;;7.50;;
11541;SDS011;5827;49.482;7.716;2023-04-10T01:06:34;8.27;;;7.23;;
11541;SDS011;5827;49.482;7.716;2023-04-10T01:08:58;9.80;;;8.00;;
11541;SDS011;5827;49.482;7.716;2023-04-10T01:11:04;10.27;;;7.37;;
11541;SDS011;5827;49.482;7.716;2023-04-10T01:13:10;8.70;;;7.53;;
11541;SDS011;5827;49.482;7.716;2023-04-10T01:15:22;8.73;;;7.30;;
11541;SDS011;5827;49.482;7.716;2023-04-10T01:17:27;9.23;;;7.60;;
11541;SDS011;5827;49.482;7.716;2023-04-10T01:19:42;8.80;;;6.93;;
11541;SDS011;5827;49.482;7.716;2023-04-10T01:21:59;8.20;;;7.20;;
11541;SDS011;5827;49.482;7.716;2023-04-10T01:24:09;9.37;;;7.63;;
11541;SDS011;5827;49.482;7.716;2023-04-10T01:26:26;9.73;;;7.77;;
11541;SDS011;5827;49.482;7.716;2023-04-10T01:28:52;8.77;;;7.87;;
11541;SDS011;5827;49.482;7.716;2023-04-10T01:31:00;9.80;;;7.47;;
11541;SDS011;5827;49.482;7.716;2023-04-10T01:33:03;11.67;;;7.30;;
11541;SDS011;5827;49.482;7.716;2023-04-10T01:35:08;9.53;;;7.40;;
11541;SDS011;5827;49.482;7.716;2023-04-10T01:37:11;8.07;;;6.90;;
11541;SDS011;5827;49.482;7.716;2023-04-10T01:39:17;9.77;;;6.93;;
11541;SDS011;5827;49.482;7.716;2023-04-10T01:41:20;9.83;;;7.50;;
11541;SDS011;5827;49.482;7.716;2023-04-10T01:43:22;8.87;;;7.53;;
11541;SDS011;5827;49.482;7.716;2023-04-10T01:45:27;7.97;;;6.60;;
11541;SDS011;5827;49.482;7.716;2023-04-10T01:47:29;7.67;;;6.53;;
11541;SDS011;5827;49.482;7.716;2023-04-10T01:49:31;7.90;;;6.63;;
11541;SDS011;5827;49.482;7.716;2023-04-10T01:51:34;8.43;;;7.10;;
11541;SDS011;5827;49.482;7.716;2023-04-10T01:53:36;7.70;;;6.70;;
11541;SDS011;5827;49.482;7.716;2023-04-10T01:55:39;8.83;;;6.93;;
11541;SDS011;5827;49.482;7.716;2023-04-10T01:57:41;8.13;;;6.77;;
11541;SDS011;5827;49.482;7.716;2023-04-10T01:59:43;8.73;;;7.10;;
11541;SDS011;5827;49.482;7.716;2023-04-10T02:01:46;9.07;;;7.50;;
11541;SDS011;5827;49.482;7.716;2023-04-10T02:03:47;8.77;;;6.97;;
11541;SDS011;5827;49.482;7.716;2023-04-10T02:08:11;8.10;;;6.90;;
11541;SDS011;5827;49.482;7.716;2023-04-10T02:10:18;8.03;;;6.90;;
11541;SDS011;5827;49.482;7.716;2023-04-10T02:12:25;8.60;;;6.93;;
11541;SDS011;5827;49.482;7.716;2023-04-10T02:14:30;8.57;;;6.97;;
11541;SDS011;5827;49.482;7.716;2023-04-10T02:16:33;9.33;;;7.57;;
11541;SDS011;5827;49.482;7.716;2023-04-10T02:18:39;9.17;;;7.40;;
11541;SDS011;5827;49.482;7.716;2023-04-10T02:20:42;9.20;;;7.13;;
11541;SDS011;5827;49.482;7.716;2023-04-10T02:22:44;9.20;;;7.70;;
11541;SDS011;5827;49.482;7.716;2023-04-10T02:24:46;8.83;;;7.57;;
11541;SDS011;5827;49.482;7.716;2023-04-10T02:26:49;9.20;;;7.50;;
11541;SDS011;5827;49.482;7.716;2023-04-10T02:28:52;8.60;;;7.07;;
11541;SDS011;5827;49.482;7.716;2023-04-10T02:30:54;9.13;;;7.70;;
11541;SDS011;5827;49.482;7.716;2023-04-10T02:32:55;8.97;;;7.33;;
11541;SDS011;5827;49.482;7.716;2023-04-10T02:34:58;8.30;;;7.23;;
11541;SDS011;5827;49.482;7.716;2023-04-10T02:37:00;9.23;;;6.80;;
11541;SDS011;5827;49.482;7.716;2023-04-10T02:39:02;9.07;;;7.73;;
11541;SDS011;5827;49.482;7.716;2023-04-10T02:41:04;8.73;;;7.13;;
11541;SDS011;5827;49.482;7.716;2023-04-10T02:43:06;10.43;;;7.57;;
11541;SDS011;5827;49.482;7.716;2023-04-10T02:45:07;7.73;;;6.90;;
11541;SDS011;5827;49.482;7.716;2023-04-10T02:47:09;11.13;;;7.70;;
11541;SDS011;5827;49.482;7.716;2023-04-10T02:49:11;9.20;;;7.40;;
11541;SDS011;5827;49.482;7.716;2023-04-10T02:51:14;8.70;;;7.00;;
11541;SDS011;5827;49.482;7.716;2023-04-10T02:53:15;7.97;;;6.97;;
11541;SDS011;5827;49.482;7.716;2023-04-10T02:55:17;11.00;;;7.70;;
11541;SDS011;5827;49.482;7.716;2023-04-10T02:57:18;8.97;;;7.23;;
11541;SDS011;5827;49.482;7.716;2023-04-10T02:59:20;10.20;;;7.43;;
11541;SDS011;5827;49.482;7.716;2023-04-10T03:01:21;8.23;;;6.77;;
11541;SDS011;5827;49.482;7.716;2023-04-10T03:03:23;9.10;;;8.00;;
11541;SDS011;5827;49.482;7.716;2023-04-10T03:05:25;8.87;;;6.73;;
11541;SDS011;5827;49.482;7.716;2023-04-10T03:07:29;8.03;;;6.83;;
11541;SDS011;5827;49.482;7.716;2023-04-10T03:09:31;8.47;;;7.30;;
11541;SDS011;5827;49.482;7.716;2023-04-10T03:11:32;7.40;;;6.60;;
11541;SDS011;5827;49.482;7.716;2023-04-10T03:13:34;7.83;;;7.03;;
11541;SDS011;5827;49.482;7.716;2023-04-10T03:15:36;9.73;;;7.17;;
11541;SDS011;5827;49.482;7.716;2023-04-10T03:17:38;8.57;;;7.07;;
11541;SDS011;5827;49.482;7.716;2023-04-10T03:19:39;8.67;;;6.93;;
11541;SDS011;5827;49.482;7.716;2023-04-10T03:21:41;9.23;;;6.93;;
11541;SDS011;5827;49.482;7.716;2023-04-10T03:23:43;9.40;;;7.37;;
11541;SDS011;5827;49.482;7.716;2023-04-10T03:25:48;8.47;;;6.90;;
11541;SDS011;5827;49.482;7.716;2023-04-10T03:27:50;8.67;;;7.13;;
11541;SDS011;5827;49.482;7.716;2023-04-10T03:29:52;8.13;;;7.03;;
11541;SDS011;5827;49.482;7.716;2023-04-10T03:31:53;9.30;;;8.00;;
11541;SDS011;5827;49.482;7.716;2023-04-10T03:33:55;9.00;;;7.33;;
11541;SDS011;5827;49.482;7.716;2023-04-10T03:35:56;10.07;;;7.77;;
11541;SDS011;5827;49.482;7.716;2023-04-10T03:37:58;10.17;;;7.60;;
11541;SDS011;5827;49.482;7.716;2023-04-10T03:40:02;10.37;;;8.00;;
11541;SDS011;5827;49.482;7.716;2023-04-10T03:42:05;9.20;;;7.43;;
11541;SDS011;5827;49.482;7.716;2023-04-10T03:44:07;8.03;;;7.10;;
11541;SDS011;5827;49.482;7.716;2023-04-10T03:46:08;10.63;;;7.67;;
11541;SDS011;5827;49.482;7.716;2023-04-10T03:48:10;9.77;;;7.93;;
11541;SDS011;5827;49.482;7.716;2023-04-10T03:50:11;9.57;;;8.10;;
11541;SDS011;5827;49.482;7.716;2023-04-10T03:52:13;9.90;;;7.83;;
11541;SDS011;5827;49.482;7.716;2023-04-10T03:54:14;9.37;;;7.83;;
11541;SDS011;5827;49.482;7.716;2023-04-10T03:56:17;9.37;;;7.50;;
11541;SDS011;5827;49.482;7.716;2023-04-10T03:58:19;8.73;;;7.20;;
11541;SDS011;5827;49.482;7.716;2023-04-10T04:00:20;10.40;;;7.40;;
11541;SDS011;5827;49.482;7.716;2023-04-10T04:02:22;10.50;;;7.63;;
11541;SDS011;5827;49.482;7.716;2023-04-10T04:04:23;8.07;;;7.07;;
11541;SDS011;5827;49.482;7.716;2023-04-10T04:06:25;12.03;;;7.53;;
11541;SDS011;5827;49.482;7.716;2023-04-10T04:08:27;10.07;;;7.70;;
11541;SDS011;5827;49.482;7.716;2023-04-10T04:10:28;9.90;;;7.93;;
11541;SDS011;5827;49.482;7.716;2023-04-10T04:12:31;9.80;;;7.27;;
11541;SDS011;5827;49.482;7.716;2023-04-10T04:14:33;9.90;;;8.30;;
11541;SDS011;5827;49.482;7.716;2023-04-10T04:16:35;9.97;;;7.83;;
11541;SDS011;5827;49.482;7.716;2023-04-10T04:18:36;9.77;;;7.77;;
11541;SDS011;5827;49.482;7.716;2023-04-10T04:20:38;9.63;;;7.57;;
11541;SDS011;5827;49.482;7.716;2023-04-10T04:22:40;8.80;;;7.20;;
11541;SDS011;5827;49.482;7.716;2023-04-10T04:24:41;9.50;;;7.90;;
11541;SDS011;5827;49.482;7.716;2023-04-10T04:26:42;8.33;;;6.67;;
11541;SDS011;5827;49.482;7.716;2023-04-10T04:28:45;8.97;;;7.47;;
11541;SDS011;5827;49.482;7.716;2023-04-10T04:30:47;9.63;;;7.13;;
11541;SDS011;5827;49.482;7.716;2023-04-10T04:32:48;8.03;;;7.23;;
11541;SDS011;5827;49.482;7.716;2023-04-10T04:34:50;10.17;;;7.60;;
11541;SDS011;5827;49.482;7.716;2023-04-10T04:36:51;9.30;;;7.47;;
11541;SDS011;5827;49.482;7.716;2023-04-10T04:38:53;8.97;;;7.63;;
11541;SDS011;5827;49.482;7.716;2023-04-10T04:40:54;9.77;;;7.83;;
11541;SDS011;5827;49.482;7.716;2023-04-10T04:42:56;9.13;;;7.53;;
11541;SDS011;5827;49.482;7.716;2023-04-10T04:44:59;9.37;;;7.73;;
11541;SDS011;5827;49.482;7.716;2023-04-10T04:47:00;8.60;;;7.17;;
11541;SDS011;5827;49.482;7.716;2023-04-10T04:49:01;9.33;;;7.20;;
11541;SDS011;5827;49.482;7.716;2023-04-10T04:51:05;8.67;;;7.57;;
11541;SDS011;5827;49.482;7.716;2023-04-10T04:53:07;9.03;;;7.70;;
11541;SDS011;5827;49.482;7.716;2023-04-10T04:55:08;9.77;;;7.83;;
11541;SDS011;5827;49.482;7.716;2023-04-10T04:57:10;9.33;;;7.40;;
11541;SDS011;5827;49.482;7.716;2023-04-10T04:59:11;8.57;;;7.23;;
11541;SDS011;5827;49.482;7.716;2023-04-10T05:01:14;8.70;;;7.20;;
11541;SDS011;5827;49.482;7.716;2023-04-10T05:03:16;10.40;;;7.63;;
11541;SDS011;5827;49.482;7.716;2023-04-10T05:05:17;11.43;;;8.13;;
11541;SDS011;5827;49.482;7.716;2023-04-10T05:07:19;11.40;;;7.83;;
11541;SDS011;5827;49.482;7.716;2023-04-10T05:09:20;9.27;;;7.37;;
11541;SDS011;5827;49.482;7.716;2023-04-10T05:11:21;9.33;;;7.93;;
11541;SDS011;5827;49.482;7.716;2023-04-10T05:13:23;8.33;;;6.77;;
11541;SDS011;5827;49.482;7.716;2023-04-10T05:15:25;10.00;;;7.50;;
11541;SDS011;5827;49.482;7.716;2023-04-10T05:17:28;10.20;;;7.93;;
11541;SDS011;5827;49.482;7.716;2023-04-10T05:19:29;10.17;;;8.13;;
11541;SDS011;5827;49.482;7.716;2023-04-10T05:21:31;11.03;;;8.87;;
11541;SDS011;5827;49.482;7.716;2023-04-10T05:23:32;9.57;;;7.97;;
11541;SDS011;5827;49.482;7.716;2023-04-10T05:25:34;9.80;;;8.27;;
11541;SDS011;5827;49.482;7.716;2023-04-10T05:27:35;10.63;;;8.77;;
11541;SDS011;5827;49.482;7.716;2023-04-10T05:29:37;12.30;;;9.00;;
11541;SDS011;5827;49.482;7.716;2023-04-10T05:31:38;10.27;;;8.07;;
11541;SDS011;5827;49.482;7.716;2023-04-10T05:33:41;10.93;;;7.93;;
11541;SDS011;5827;49.482;7.716;2023-04-10T05:35:43;9.07;;;7.53;;
11541;SDS011;5827;49.482;7.716;2023-04-10T05:37:46;9.97;;;7.47;;
11541;SDS011;5827;49.482;7.716;2023-04-10T05:39:47;9.60;;;7.13;;
11541;SDS011;5827;49.482;7.716;2023-04-10T05:41:48;11.37;;;8.00;;
11541;SDS011;5827;49.482;7.716;2023-04-10T05:43:50;10.17;;;7.57;;
11541;SDS011;5827;49.482;7.716;2023-04-10T05:45:51;10.00;;;7.93;;
11541;SDS011;5827;49.482;7.716;2023-04-10T05:47:53;10.47;;;8.17;;
11541;SDS011;5827;49.482;7.716;2023-04-10T05:49:56;9.97;;;7.93;;
11541;SDS011;5827;49.482;7.716;2023-04-10T05:51:57;10.03;;;7.90;;
11541;SDS011;5827;49.482;7.716;2023-04-10T05:53:59;9.33;;;7.80;;
11541;SDS011;5827;49.482;7.716;2023-04-10T05:56:00;9.97;;;7.73;;
11541;SDS011;5827;49.482;7.716;2023-04-10T05:58:02;9.07;;;7.97;;
11541;SDS011;5827;49.482;7.716;2023-04-10T06:00:05;9.33;;;8.07;;
11541;SDS011;5827;49.482;7.716;2023-04-10T06:02:08;11.67;;;8.20;;
11541;SDS011;5827;49.482;7.716;2023-04-10T06:04:09;11.30;;;8.67;;
11541;SDS011;5827;49.482;7.716;2023-04-10T06:06:12;10.67;;;8.20;;
11541;SDS011;5827;49.482;7.716;2023-04-10T06:08:14;9.70;;;7.93;;
11541;SDS011;5827;49.482;7.716;2023-04-10T06:10:15;9.80;;;7.97;;
11541;SDS011;5827;49.482;7.716;2023-04-10T06:12:17;9.90;;;8.07;;
11541;SDS011;5827;49.482;7.716;2023-04-10T06:14:18;9.80;;;7.90;;
11541;SDS011;5827;49.482;7.716;2023-04-10T06:16:20;9.77;;;8.00;;
11541;SDS011;5827;49.482;7.716;2023-04-10T06:18:21;11.80;;;8.20;;
11541;SDS011;5827;49.482;7.716;2023-04-10T06:20:23;10.80;;;8.10;;
11541;SDS011;5827;49.482;7.716;2023-04-10T06:22:26;9.30;;;7.77;;
11541;SDS011;5827;49.482;7.716;2023-04-10T06:24:27;8.73;;;7.53;;
11541;SDS011;5827;49.482;7.716;2023-04-10T06:26:29;10.87;;;8.30;;
11541;SDS011;5827;49.482;7.716;2023-04-10T06:28:31;11.97;;;8.70;;
11541;SDS011;5827;49.482;7.716;2023-04-10T06:30:32;11.07;;;8.57;;
11541;SDS011;5827;49.482;7.716;2023-04-10T06:32:36;10.03;;;8.43;;
11541;SDS011;5827;49.482;7.716;2023-04-10T06:34:37;10.73;;;8.07;;
11541;SDS011;5827;49.482;7.716;2023-04-10T06:36:39;10.00;;;7.87;;
11541;SDS011;5827;49.482;7.716;2023-04-10T06:38:42;11.50;;;8.43;;
11541;SDS011;5827;49.482;7.716;2023-04-10T06:40:44;10.77;;;8.23;;
11541;SDS011;5827;49.482;7.716;2023-04-10T06:42:45;9.70;;;8.10;;
11541;SDS011;5827;49.482;7.716;2023-04-10T06:44:47;8.83;;;7.83;;
11541;SDS011;5827;49.482;7.716;2023-04-10T06:46:48;10.90;;;8.30;;
11541;SDS011;5827;49.482;7.716;2023-04-10T06:48:50;11.67;;;8.43;;
11541;SDS011;5827;49.482;7.716;2023-04-10T06:50:51;10.73;;;8.57;;
11541;SDS011;5827;49.482;7.716;2023-04-10T06:52:53;9.53;;;8.17;;
11541;SDS011;5827;49.482;7.716;2023-04-10T06:54:56;10.43;;;8.50;;
11541;SDS011;5827;49.482;7.716;2023-04-10T06:56:58;8.10;;;7.30;;
11541;SDS011;5827;49.482;7.716;2023-04-10T06:59:00;10.93;;;9.07;;
11541;SDS011;5827;49.482;7.716;2023-04-10T07:01:02;10.83;;;8.40;;
11541;SDS011;5827;49.482;7.716;2023-04-10T07:03:04;11.10;;;8.23;;
11541;SDS011;5827;49.482;7.716;2023-04-10T07:05:06;11.43;;;8.43;;
11541;SDS011;5827;49.482;7.716;2023-04-10T07:07:07;9.97;;;8.30;;
11541;SDS011;5827;49.482;7.716;2023-04-10T07:09:11;9.47;;;7.83;;
11541;SDS011;5827;49.482;7.716;2023-04-10T07:11:14;9.30;;;7.77;;
11541;SDS011;5827;49.482;7.716;2023-04-10T07:13:15;9.43;;;8.43;;
11541;SDS011;5827;49.482;7.716;2023-04-10T07:15:17;9.70;;;8.33;;
11541;SDS011;5827;49.482;7.716;2023-04-10T07:17:18;10.07;;;8.80;;
11541;SDS011;5827;49.482;7.716;2023-04-10T07:19:21;9.83;;;7.77;;
11541;SDS011;5827;49.482;7.716;2023-04-10T07:21:22;8.20;;;7.40;;
11541;SDS011;5827;49.482;7.716;2023-04-10T07:23:24;8.30;;;7.37;;
11541;SDS011;5827;49.482;7.716;2023-04-10T07:25:25;6.83;;;6.13;;
11541;SDS011;5827;49.482;7.716;2023-04-10T07:27:28;7.00;;;6.03;;
11541;SDS011;5827;49.482;7.716;2023-04-10T07:29:29;9.73;;;6.23;;
11541;SDS011;5827;49.482;7.716;2023-04-10T07:31:31;5.87;;;5.30;;
11541;SDS011;5827;49.482;7.716;2023-04-10T07:33:32;5.90;;;5.30;;
11541;SDS011;5827;49.482;7.716;2023-04-10T07:35:35;5.67;;;5.13;;
11541;SDS011;5827;49.482;7.716;2023-04-10T07:37:36;5.70;;;5.20;;
11541;SDS011;5827;49.482;7.716;2023-04-10T07:39:39;5.30;;;4.80;;
11541;SDS011;5827;49.482;7.716;2023-04-10T07:41:40;5.37;;;4.53;;
11541;SDS011;5827;49.482;7.716;2023-04-10T07:43:43;4.83;;;4.33;;
11541;SDS011;5827;49.482;7.716;2023-04-10T07:45:45;5.30;;;4.80;;
11541;SDS011;5827;49.482;7.716;2023-04-10T07:47:47;4.93;;;4.43;;
11541;SDS011;5827;49.482;7.716;2023-04-10T07:49:48;4.97;;;4.47;;
11541;SDS011;5827;49.482;7.716;2023-04-10T07:51:50;4.00;;;3.70;;
11541;SDS011;5827;49.482;7.716;2023-04-10T07:53:51;5.23;;;4.53;;
11541;SDS011;5827;49.482;7.716;2023-04-10T07:55:53;4.47;;;4.07;;
11541;SDS011;5827;49.482;7.716;2023-04-10T07:57:54;4.63;;;4.23;;
11541;SDS011;5827;49.482;7.716;2023-04-10T07:59:57;4.77;;;4.37;;
11541;SDS011;5827;49.482;7.716;2023-04-10T08:01:59;4.40;;;4.00;;
11541;SDS011;5827;49.482;7.716;2023-04-10T08:04:00;4.33;;;3.93;;
11541;SDS011;5827;49.482;7.716;2023-04-10T08:06:02;4.50;;;4.10;;
11541;SDS011;5827;49.482;7.716;2023-04-10T08:08:04;4.27;;;3.87;;
11541;SDS011;5827;49.482;7.716;2023-04-10T08:10:06;3.57;;;3.27;;
11541;SDS011;5827;49.482;7.716;2023-04-10T08:12:08;5.00;;;4.50;;
11541;SDS011;5827;49.482;7.716;2023-04-10T08:14:09;4.27;;;3.87;;
11541;SDS011;5827;49.482;7.716;2023-04-10T08:16:13;4.20;;;3.80;;
11541;SDS011;5827;49.482;7.716;2023-04-10T08:18:15;3.73;;;3.33;;
11541;SDS011;5827;49.482;7.716;2023-04-10T08:20:16;3.50;;;3.13;;
11541;SDS011;5827;49.482;7.716;2023-04-10T08:22:18;3.90;;;3.50;;
11541;SDS011;5827;49.482;7.716;2023-04-10T08:24:20;3.57;;;3.27;;
11541;SDS011;5827;49.482;7.716;2023-04-10T08:26:22;3.63;;;3.27;;
11541;SDS011;5827;49.482;7.716;2023-04-10T08:28:25;9.37;;;3.53;;
11541;SDS011;5827;49.482;7.716;2023-04-10T08:30:26;3.47;;;3.17;;
11541;SDS011;5827;49.482;7.716;2023-04-10T08:32:29;3.57;;;3.13;;
11541;SDS011;5827;49.482;7.716;2023-04-10T08:34:31;3.70;;;3.40;;
11541;SDS011;5827;49.482;7.716;2023-04-10T08:36:33;3.70;;;3.40;;
11541;SDS011;5827;49.482;7.716;2023-04-10T08:38:34;3.77;;;3.00;;
11541;SDS011;5827;49.482;7.716;2023-04-10T08:40:36;3.53;;;3.13;;
11541;SDS011;5827;49.482;7.716;2023-04-10T08:42:38;3.63;;;3.30;;
11541;SDS011;5827;49.482;7.716;2023-04-10T08:44:39;3.80;;;3.50;;
11541;SDS011;5827;49.482;7.716;2023-04-10T08:46:42;3.53;;;3.17;;
11541;SDS011;5827;49.482;7.716;2023-04-10T08:48:47;3.30;;;3.00;;
11541;SDS011;5827;49.482;7.716;2023-04-10T08:50:53;3.10;;;2.90;;
11541;SDS011;5827;49.482;7.716;2023-04-10T08:53:02;3.10;;;2.80;;
11541;SDS011;5827;49.482;7.716;2023-04-10T08:55:09;3.20;;;2.90;;
11541;SDS011;5827;49.482;7.716;2023-04-10T08:57:14;3.30;;;3.00;;
11541;SDS011;5827;49.482;7.716;2023-04-10T08:59:17;3.10;;;2.80;;
11541;SDS011;5827;49.482;7.716;2023-04-10T09:01:19;3.43;;;3.13;;
11541;SDS011;5827;49.482;7.716;2023-04-10T09:03:21;3.50;;;3.20;;
11541;SDS011;5827;49.482;7.716;2023-04-10T09:05:24;3.43;;;3.13;;
11541;SDS011;5827;49.482;7.716;2023-04-10T09:07:27;3.33;;;3.03;;
11541;SDS011;5827;49.482;7.716;2023-04-10T09:09:28;3.20;;;3.00;;
11541;SDS011;5827;49.482;7.716;2023-04-10T09:14:06;3.30;;;3.00;;
11541;SDS011;5827;49.482;7.716;2023-04-10T09:16:21;3.27;;;3.03;;
11541;SDS011;5827;49.482;7.716;2023-04-10T09:18:39;3.77;;;3.43;;
11541;SDS011;5827;49.482;7.716;2023-04-10T09:20:42;3.30;;;2.77;;
11541;SDS011;5827;49.482;7.716;2023-04-10T09:22:50;3.03;;;2.83;;
11541;SDS011;5827;49.482;7.716;2023-04-10T09:24:51;3.00;;;2.80;;
11541;SDS011;5827;49.482;7.716;2023-04-10T09:26:53;3.17;;;2.97;;
11541;SDS011;5827;49.482;7.716;2023-04-10T09:28:59;3.10;;;2.80;;
11541;SDS011;5827;49.482;7.716;2023-04-10T09:31:01;2.90;;;2.70;;
11541;SDS011;5827;49.482;7.716;2023-04-10T09:33:27;3.03;;;2.83;;
11541;SDS011;5827;49.482;7.716;2023-04-10T09:35:35;3.13;;;2.80;;
11541;SDS011;5827;49.482;7.716;2023-04-10T09:37:39;2.97;;;2.77;;
11541;SDS011;5827;49.482;7.716;2023-04-10T09:39:42;2.80;;;2.60;;
11541;SDS011;5827;49.482;7.716;2023-04-10T09:41:47;3.30;;;2.77;;
11541;SDS011;5827;49.482;7.716;2023-04-10T09:43:49;2.73;;;2.53;;
11541;SDS011;5827;49.482;7.716;2023-04-10T09:46:06;2.80;;;2.60;;
11541;SDS011;5827;49.482;7.716;2023-04-10T09:48:07;2.60;;;2.40;;
11541;SDS011;5827;49.482;7.716;2023-04-10T09:50:09;3.43;;;2.77;;
11541;SDS011;5827;49.482;7.716;2023-04-10T09:52:16;2.90;;;2.70;;
11541;SDS011;5827;49.482;7.716;2023-04-10T09:54:22;2.17;;;1.97;;
11541;SDS011;5827;49.482;7.716;2023-04-10T09:56:37;1.80;;;1.70;;
11541;SDS011;5827;49.482;7.716;2023-04-10T09:58:39;2.23;;;2.03;;
11541;SDS011;5827;49.482;7.716;2023-04-10T10:00:41;2.13;;;1.93;;
11541;SDS011;5827;49.482;7.716;2023-04-10T10:02:44;1.80;;;1.70;;
11541;SDS011;5827;49.482;7.716;2023-04-10T10:04:46;2.13;;;1.93;;
11541;SDS011;5827;49.482;7.716;2023-04-10T10:06:48;2.27;;;2.07;;
11541;SDS011;5827;49.482;7.716;2023-04-10T10:08:50;2.00;;;1.90;;
11541;SDS011;5827;49.482;7.716;2023-04-10T10:10:53;2.00;;;1.90;;
11541;SDS011;5827;49.482;7.716;2023-04-10T10:12:59;2.10;;;2.00;;
11541;SDS011;5827;49.482;7.716;2023-04-10T10:15:03;1.80;;;1.70;;
11541;SDS011;5827;49.482;7.716;2023-04-10T10:17:10;2.00;;;1.90;;
11541;SDS011;5827;49.482;7.716;2023-04-10T10:19:16;1.93;;;1.80;;
11541;SDS011;5827;49.482;7.716;2023-04-10T10:21:23;2.00;;;1.90;;
11541;SDS011;5827;49.482;7.716;2023-04-10T10:23:27;1.90;;;1.80;;
11541;SDS011;5827;49.482;7.716;2023-04-10T10:25:29;2.13;;;1.93;;
11541;SDS011;5827;49.482;7.716;2023-04-10T10:27:33;2.07;;;1.97;;
11541;SDS011;5827;49.482;7.716;2023-04-10T10:29:37;1.83;;;1.73;;
11541;SDS011;5827;49.482;7.716;2023-04-10T10:31:41;2.07;;;1.97;;
11541;SDS011;5827;49.482;7.716;2023-04-10T10:33:43;1.90;;;1.80;;
11541;SDS011;5827;49.482;7.716;2023-04-10T10:35:46;1.93;;;1.77;;
11541;SDS011;5827;49.482;7.716;2023-04-10T10:37:49;2.20;;;2.00;;
11541;SDS011;5827;49.482;7.716;2023-04-10T10:39:54;3.03;;;1.90;;
11541;SDS011;5827;49.482;7.716;2023-04-10T10:42:02;2.23;;;2.03;;
11541;SDS011;5827;49.482;7.716;2023-04-10T10:44:12;3.90;;;2.10;;
11541;SDS011;5827;49.482;7.716;2023-04-10T10:46:25;2.20;;;2.00;;
11541;SDS011;5827;49.482;7.716;2023-04-10T10:48:34;2.20;;;1.83;;
11541;SDS011;5827;49.482;7.716;2023-04-10T10:50:51;2.03;;;1.93;;
11541;SDS011;5827;49.482;7.716;2023-04-10T10:52:56;2.17;;;2.07;;
11541;SDS011;5827;49.482;7.716;2023-04-10T10:54:57;2.40;;;2.20;;
11541;SDS011;5827;49.482;7.716;2023-04-10T10:56:59;2.53;;;2.33;;
11541;SDS011;5827;49.482;7.716;2023-04-10T10:59:02;2.17;;;2.00;;
11541;SDS011;5827;49.482;7.716;2023-04-10T11:01:05;2.07;;;1.97;;
11541;SDS011;5827;49.482;7.716;2023-04-10T11:03:28;2.43;;;2.23;;
11541;SDS011;5827;49.482;7.716;2023-04-10T11:05:48;2.40;;;2.20;;
11541;SDS011;5827;49.482;7.716;2023-04-10T11:08:05;2.17;;;1.97;;
11541;SDS011;5827;49.482;7.716;2023-04-10T11:10:07;2.37;;;2.17;;
11541;SDS011;5827;49.482;7.716;2023-04-10T11:12:09;2.20;;;2.10;;
11541;SDS011;5827;49.482;7.716;2023-04-10T11:14:11;2.53;;;2.33;;
11541;SDS011;5827;49.482;7.716;2023-04-10T11:16:19;2.20;;;2.10;;
11541;SDS011;5827;49.482;7.716;2023-04-10T11:18:35;2.30;;;2.10;;
11541;SDS011;5827;49.482;7.716;2023-04-10T11:21:10;2.50;;;2.30;;
11541;SDS011;5827;49.482;7.716;2023-04-10T11:23:13;2.03;;;1.93;;
11541;SDS011;5827;49.482;7.716;2023-04-10T11:25:14;2.30;;;2.00;;
11541;SDS011;5827;49.482;7.716;2023-04-10T11:29:45;3.00;;;2.40;;
11541;SDS011;5827;49.482;7.716;2023-04-10T11:31:53;2.23;;;2.10;;
11541;SDS011;5827;49.482;7.716;2023-04-10T11:33:59;2.03;;;1.93;;
11541;SDS011;5827;49.482;7.716;2023-04-10T11:36:02;1.90;;;1.80;;
11541;SDS011;5827;49.482;7.716;2023-04-10T11:38:08;1.97;;;1.87;;
11541;SDS011;5827;49.482;7.716;2023-04-10T11:40:13;1.90;;;1.80;;
11541;SDS011;5827;49.482;7.716;2023-04-10T11:42:19;2.00;;;1.90;;
11541;SDS011;5827;49.482;7.716;2023-04-10T11:44:26;4.77;;;1.90;;
11541;SDS011;5827;49.482;7.716;2023-04-10T11:46:29;1.90;;;1.80;;
11541;SDS011;5827;49.482;7.716;2023-04-10T11:48:32;1.87;;;1.60;;
11541;SDS011;5827;49.482;7.716;2023-04-10T11:50:35;1.90;;;1.80;;
11541;SDS011;5827;49.482;7.716;2023-04-10T11:52:37;2.00;;;1.90;;
11541;SDS011;5827;49.482;7.716;2023-04-10T11:54:38;2.00;;;1.80;;
11541;SDS011;5827;49.482;7.716;2023-04-10T11:56:55;1.97;;;1.87;;
11541;SDS011;5827;49.482;7.716;2023-04-10T11:59:01;2.07;;;1.80;;
11541;SDS011;5827;49.482;7.716;2023-04-10T12:01:06;1.70;;;1.60;;
11541;SDS011;5827;49.482;7.716;2023-04-10T12:03:13;1.70;;;1.60;;
11541;SDS011;5827;49.482;7.716;2023-04-10T12:05:16;1.70;;;1.60;;
11541;SDS011;5827;49.482;7.716;2023-04-10T12:07:17;1.60;;;1.50;;
11541;SDS011;5827;49.482;7.716;2023-04-10T12:09:19;1.57;;;1.47;;
11541;SDS011;5827;49.482;7.716;2023-04-10T12:11:22;1.67;;;1.57;;
11541;SDS011;5827;49.482;7.716;2023-04-10T12:13:25;2.00;;;1.67;;
11541;SDS011;5827;49.482;7.716;2023-04-10T12:15:27;1.80;;;1.70;;
11541;SDS011;5827;49.482;7.716;2023-04-10T12:17:29;1.60;;;1.50;;
11541;SDS011;5827;49.482;7.716;2023-04-10T12:19:31;1.80;;;1.70;;
11541;SDS011;5827;49.482;7.716;2023-04-10T12:21:35;1.60;;;1.50;;
11541;SDS011;5827;49.482;7.716;2023-04-10T12:23:37;1.60;;;1.50;;
11541;SDS011;5827;49.482;7.716;2023-04-10T12:25:40;1.80;;;1.70;;
11541;SDS011;5827;49.482;7.716;2023-04-10T12:27:46;1.90;;;1.80;;
11541;SDS011;5827;49.482;7.716;2023-04-10T12:29:50;1.67;;;1.40;;
11541;SDS011;5827;49.482;7.716;2023-04-10T12:31:52;1.50;;;1.40;;
11541;SDS011;5827;49.482;7.716;2023-04-10T12:33:54;2.00;;;1.90;;
11541;SDS011;5827;49.482;7.716;2023-04-10T12:35:56;2.13;;;2.00;;
11541;SDS011;5827;49.482;7.716;2023-04-10T12:38:00;1.70;;;1.60;;
11541;SDS011;5827;49.482;7.716;2023-04-10T12:40:05;1.60;;;1.50;;